sensor_id;sensor_type;location;lat;lon;timestamp;P1;durP1;ratioP1;P2;durP2;ratioP2
11141;SDS011;5625;50.122;19.864;2022-12-07T00:01:26;16.83;;;12.73;;
11141;SDS011;5625;50.122;19.864;2022-12-07T00:03:56;13.63;;;11.63;;
11141;SDS011;5625;50.122;19.864;2022-12-07T00:06:31;13.63;;;12.17;;
11141;SDS011;5625;50.122;19.864;2022-12-07T00:08:59;12.90;;;11.33;;
11141;SDS011;5625;50.122;19.864;2022-12-07T00:11:29;12.97;;;11.53;;
11141;SDS011;5625;50.122;19.864;2022-12-07T00:13:58;14.23;;;11.47;;
11141;SDS011;5625;50.122;19.864;2022-12-07T00:16:28;13.03;;;11.30;;
11141;SDS011;5625;50.122;19.864;2022-12-07T00:18:59;13.13;;;11.33;;
11141;SDS011;5625;50.122;19.864;2022-12-07T00:21:28;12.83;;;10.57;;
11141;SDS011;5625;50.122;19.864;2022-12-07T00:23:58;13.20;;;10.60;;
11141;SDS011;5625;50.122;19.864;2022-12-07T00:26:26;12.80;;;10.53;;
11141;SDS011;5625;50.122;19.864;2022-12-07T00:28:57;12.23;;;10.73;;
11141;SDS011;5625;50.122;19.864;2022-12-07T00:31:28;12.07;;;9.87;;
11141;SDS011;5625;50.122;19.864;2022-12-07T00:33:57;11.10;;;10.00;;
11141;SDS011;5625;50.122;19.864;2022-12-07T00:36:26;11.13;;;9.43;;
11141;SDS011;5625;50.122;19.864;2022-12-07T00:38:55;10.90;;;9.73;;
11141;SDS011;5625;50.122;19.864;2022-12-07T00:41:26;11.53;;;10.10;;
11141;SDS011;5625;50.122;19.864;2022-12-07T00:43:56;12.07;;;9.70;;
11141;SDS011;5625;50.122;19.864;2022-12-07T00:46:25;10.63;;;9.53;;
11141;SDS011;5625;50.122;19.864;2022-12-07T00:48:53;11.37;;;9.80;;
11141;SDS011;5625;50.122;19.864;2022-12-07T00:51:22;10.93;;;8.90;;
11141;SDS011;5625;50.122;19.864;2022-12-07T00:53:52;12.47;;;9.93;;
11141;SDS011;5625;50.122;19.864;2022-12-07T00:56:21;11.00;;;9.30;;
11141;SDS011;5625;50.122;19.864;2022-12-07T00:58:52;11.47;;;9.10;;
11141;SDS011;5625;50.122;19.864;2022-12-07T01:01:21;9.80;;;8.80;;
11141;SDS011;5625;50.122;19.864;2022-12-07T01:03:50;9.63;;;8.63;;
11141;SDS011;5625;50.122;19.864;2022-12-07T01:06:19;9.77;;;8.77;;
11141;SDS011;5625;50.122;19.864;2022-12-07T01:08:48;10.57;;;9.37;;
11141;SDS011;5625;50.122;19.864;2022-12-07T01:11:17;10.47;;;9.33;;
11141;SDS011;5625;50.122;19.864;2022-12-07T01:13:49;10.90;;;9.80;;
11141;SDS011;5625;50.122;19.864;2022-12-07T01:16:18;10.30;;;9.17;;
11141;SDS011;5625;50.122;19.864;2022-12-07T01:18:48;10.93;;;9.03;;
11141;SDS011;5625;50.122;19.864;2022-12-07T01:21:18;9.93;;;8.83;;
11141;SDS011;5625;50.122;19.864;2022-12-07T01:23:47;10.03;;;8.77;;
11141;SDS011;5625;50.122;19.864;2022-12-07T01:26:17;9.90;;;8.67;;
11141;SDS011;5625;50.122;19.864;2022-12-07T01:28:47;9.80;;;8.80;;
11141;SDS011;5625;50.122;19.864;2022-12-07T01:31:15;9.53;;;8.37;;
11141;SDS011;5625;50.122;19.864;2022-12-07T01:33:47;10.27;;;8.43;;
11141;SDS011;5625;50.122;19.864;2022-12-07T01:36:18;9.53;;;8.10;;
11141;SDS011;5625;50.122;19.864;2022-12-07T01:38:49;9.57;;;7.93;;
11141;SDS011;5625;50.122;19.864;2022-12-07T01:41:19;9.67;;;8.43;;
11141;SDS011;5625;50.122;19.864;2022-12-07T01:44:08;10.37;;;8.40;;
11141;SDS011;5625;50.122;19.864;2022-12-07T01:46:42;9.43;;;8.33;;
11141;SDS011;5625;50.122;19.864;2022-12-07T01:49:14;9.50;;;8.50;;
11141;SDS011;5625;50.122;19.864;2022-12-07T01:51:47;8.83;;;7.83;;
11141;SDS011;5625;50.122;19.864;2022-12-07T01:54:19;8.53;;;7.63;;
11141;SDS011;5625;50.122;19.864;2022-12-07T01:56:50;9.47;;;8.37;;
11141;SDS011;5625;50.122;19.864;2022-12-07T01:59:21;9.77;;;8.10;;
11141;SDS011;5625;50.122;19.864;2022-12-07T02:01:52;8.67;;;7.77;;
11141;SDS011;5625;50.122;19.864;2022-12-07T02:04:23;9.60;;;8.67;;
11141;SDS011;5625;50.122;19.864;2022-12-07T02:06:52;9.13;;;8.23;;
11141;SDS011;5625;50.122;19.864;2022-12-07T02:09:22;9.17;;;7.93;;
11141;SDS011;5625;50.122;19.864;2022-12-07T02:11:50;9.90;;;8.90;;
11141;SDS011;5625;50.122;19.864;2022-12-07T02:14:19;9.47;;;8.47;;
11141;SDS011;5625;50.122;19.864;2022-12-07T02:16:51;10.17;;;8.83;;
11141;SDS011;5625;50.122;19.864;2022-12-07T02:19:38;10.00;;;9.00;;
11141;SDS011;5625;50.122;19.864;2022-12-07T02:22:36;10.27;;;9.17;;
11141;SDS011;5625;50.122;19.864;2022-12-07T02:25:30;11.00;;;9.27;;
11141;SDS011;5625;50.122;19.864;2022-12-07T02:28:12;10.43;;;9.03;;
11141;SDS011;5625;50.122;19.864;2022-12-07T02:30:52;9.77;;;8.77;;
11141;SDS011;5625;50.122;19.864;2022-12-07T02:33:24;10.00;;;8.50;;
11141;SDS011;5625;50.122;19.864;2022-12-07T02:35:57;9.87;;;8.37;;
11141;SDS011;5625;50.122;19.864;2022-12-07T02:38:30;10.13;;;9.13;;
11141;SDS011;5625;50.122;19.864;2022-12-07T02:41:05;10.60;;;8.80;;
11141;SDS011;5625;50.122;19.864;2022-12-07T02:43:38;10.83;;;9.03;;
11141;SDS011;5625;50.122;19.864;2022-12-07T02:46:11;8.83;;;7.93;;
11141;SDS011;5625;50.122;19.864;2022-12-07T02:48:48;9.43;;;8.53;;
11141;SDS011;5625;50.122;19.864;2022-12-07T02:51:18;9.50;;;8.20;;
11141;SDS011;5625;50.122;19.864;2022-12-07T02:53:46;9.60;;;8.63;;
11141;SDS011;5625;50.122;19.864;2022-12-07T02:56:18;8.83;;;7.87;;
11141;SDS011;5625;50.122;19.864;2022-12-07T02:58:57;9.23;;;8.30;;
11141;SDS011;5625;50.122;19.864;2022-12-07T03:01:37;8.37;;;7.57;;
11141;SDS011;5625;50.122;19.864;2022-12-07T03:04:15;9.80;;;8.40;;
11141;SDS011;5625;50.122;19.864;2022-12-07T03:06:56;8.13;;;7.10;;
11141;SDS011;5625;50.122;19.864;2022-12-07T03:09:30;8.37;;;7.03;;
11141;SDS011;5625;50.122;19.864;2022-12-07T03:12:05;8.83;;;7.90;;
11141;SDS011;5625;50.122;19.864;2022-12-07T03:14:38;8.53;;;7.60;;
11141;SDS011;5625;50.122;19.864;2022-12-07T03:17:10;8.67;;;7.77;;
11141;SDS011;5625;50.122;19.864;2022-12-07T03:19:41;9.17;;;8.07;;
11141;SDS011;5625;50.122;19.864;2022-12-07T03:22:12;10.27;;;8.67;;
11141;SDS011;5625;50.122;19.864;2022-12-07T03:24:42;9.30;;;8.37;;
11141;SDS011;5625;50.122;19.864;2022-12-07T03:27:15;9.30;;;8.33;;
11141;SDS011;5625;50.122;19.864;2022-12-07T03:29:48;9.97;;;8.87;;
11141;SDS011;5625;50.122;19.864;2022-12-07T03:32:23;10.43;;;9.37;;
11141;SDS011;5625;50.122;19.864;2022-12-07T03:34:57;10.30;;;9.13;;
11141;SDS011;5625;50.122;19.864;2022-12-07T03:37:29;10.30;;;9.20;;
11141;SDS011;5625;50.122;19.864;2022-12-07T03:40:03;11.70;;;9.37;;
11141;SDS011;5625;50.122;19.864;2022-12-07T03:42:38;10.30;;;8.80;;
11141;SDS011;5625;50.122;19.864;2022-12-07T03:45:07;11.47;;;9.47;;
11141;SDS011;5625;50.122;19.864;2022-12-07T03:47:41;10.63;;;8.77;;
11141;SDS011;5625;50.122;19.864;2022-12-07T03:50:15;12.40;;;9.50;;
11141;SDS011;5625;50.122;19.864;2022-12-07T03:52:53;12.17;;;9.17;;
11141;SDS011;5625;50.122;19.864;2022-12-07T03:55:24;10.87;;;9.63;;
11141;SDS011;5625;50.122;19.864;2022-12-07T03:57:56;10.90;;;9.00;;
11141;SDS011;5625;50.122;19.864;2022-12-07T04:00:27;10.20;;;9.07;;
11141;SDS011;5625;50.122;19.864;2022-12-07T04:02:56;11.03;;;9.90;;
11141;SDS011;5625;50.122;19.864;2022-12-07T04:05:25;10.57;;;9.47;;
11141;SDS011;5625;50.122;19.864;2022-12-07T04:07:53;11.80;;;10.47;;
11141;SDS011;5625;50.122;19.864;2022-12-07T04:10:21;12.03;;;9.80;;
11141;SDS011;5625;50.122;19.864;2022-12-07T04:12:50;11.67;;;9.80;;
11141;SDS011;5625;50.122;19.864;2022-12-07T04:15:18;11.27;;;10.10;;
11141;SDS011;5625;50.122;19.864;2022-12-07T04:17:46;13.23;;;10.80;;
11141;SDS011;5625;50.122;19.864;2022-12-07T04:20:15;12.57;;;11.27;;
11141;SDS011;5625;50.122;19.864;2022-12-07T04:22:43;10.87;;;9.77;;
11141;SDS011;5625;50.122;19.864;2022-12-07T04:25:11;11.60;;;9.77;;
11141;SDS011;5625;50.122;19.864;2022-12-07T04:27:40;12.10;;;10.90;;
11141;SDS011;5625;50.122;19.864;2022-12-07T04:30:08;11.47;;;10.27;;
11141;SDS011;5625;50.122;19.864;2022-12-07T04:32:36;11.30;;;10.10;;
11141;SDS011;5625;50.122;19.864;2022-12-07T04:35:05;11.73;;;10.53;;
11141;SDS011;5625;50.122;19.864;2022-12-07T04:37:35;12.30;;;10.30;;
11141;SDS011;5625;50.122;19.864;2022-12-07T04:40:05;12.47;;;10.37;;
11141;SDS011;5625;50.122;19.864;2022-12-07T04:42:37;12.70;;;10.83;;
11141;SDS011;5625;50.122;19.864;2022-12-07T04:45:06;12.60;;;11.30;;
11141;SDS011;5625;50.122;19.864;2022-12-07T04:47:34;12.87;;;11.20;;
11141;SDS011;5625;50.122;19.864;2022-12-07T04:50:03;12.57;;;10.97;;
11141;SDS011;5625;50.122;19.864;2022-12-07T04:52:32;13.20;;;11.63;;
11141;SDS011;5625;50.122;19.864;2022-12-07T04:55:01;14.40;;;11.90;;
11141;SDS011;5625;50.122;19.864;2022-12-07T04:57:30;13.60;;;12.17;;
11141;SDS011;5625;50.122;19.864;2022-12-07T04:59:58;13.37;;;11.87;;
11141;SDS011;5625;50.122;19.864;2022-12-07T05:02:26;14.10;;;12.00;;
11141;SDS011;5625;50.122;19.864;2022-12-07T05:04:55;13.97;;;12.47;;
11141;SDS011;5625;50.122;19.864;2022-12-07T05:07:23;14.67;;;12.67;;
11141;SDS011;5625;50.122;19.864;2022-12-07T05:09:51;16.83;;;12.50;;
11141;SDS011;5625;50.122;19.864;2022-12-07T05:12:20;14.30;;;12.70;;
11141;SDS011;5625;50.122;19.864;2022-12-07T05:14:48;14.83;;;12.67;;
11141;SDS011;5625;50.122;19.864;2022-12-07T05:17:16;16.50;;;13.53;;
11141;SDS011;5625;50.122;19.864;2022-12-07T05:19:44;15.57;;;13.23;;
11141;SDS011;5625;50.122;19.864;2022-12-07T05:22:12;16.70;;;13.73;;
11141;SDS011;5625;50.122;19.864;2022-12-07T05:24:41;17.00;;;13.33;;
11141;SDS011;5625;50.122;19.864;2022-12-07T05:27:09;17.27;;;14.17;;
11141;SDS011;5625;50.122;19.864;2022-12-07T05:29:38;16.30;;;14.30;;
11141;SDS011;5625;50.122;19.864;2022-12-07T05:32:07;16.23;;;13.80;;
11141;SDS011;5625;50.122;19.864;2022-12-07T05:34:37;18.00;;;14.97;;
11141;SDS011;5625;50.122;19.864;2022-12-07T05:37:05;19.00;;;14.90;;
11141;SDS011;5625;50.122;19.864;2022-12-07T05:39:33;18.13;;;14.60;;
11141;SDS011;5625;50.122;19.864;2022-12-07T05:42:01;16.83;;;15.07;;
11141;SDS011;5625;50.122;19.864;2022-12-07T05:44:39;17.10;;;14.43;;
11141;SDS011;5625;50.122;19.864;2022-12-07T05:47:07;18.83;;;14.97;;
11141;SDS011;5625;50.122;19.864;2022-12-07T05:49:36;17.47;;;14.83;;
11141;SDS011;5625;50.122;19.864;2022-12-07T05:52:04;19.63;;;15.07;;
11141;SDS011;5625;50.122;19.864;2022-12-07T05:54:32;19.67;;;14.60;;
11141;SDS011;5625;50.122;19.864;2022-12-07T05:57:00;18.53;;;14.47;;
11141;SDS011;5625;50.122;19.864;2022-12-07T05:59:28;18.00;;;15.03;;
11141;SDS011;5625;50.122;19.864;2022-12-07T06:01:57;20.07;;;14.77;;
11141;SDS011;5625;50.122;19.864;2022-12-07T06:04:27;18.13;;;14.27;;
11141;SDS011;5625;50.122;19.864;2022-12-07T06:06:57;18.23;;;14.70;;
11141;SDS011;5625;50.122;19.864;2022-12-07T06:09:26;16.57;;;14.27;;
11141;SDS011;5625;50.122;19.864;2022-12-07T06:11:55;16.27;;;13.03;;
11141;SDS011;5625;50.122;19.864;2022-12-07T06:14:42;15.73;;;12.83;;
11141;SDS011;5625;50.122;19.864;2022-12-07T06:17:11;15.60;;;12.60;;
11141;SDS011;5625;50.122;19.864;2022-12-07T06:19:40;15.03;;;12.87;;
11141;SDS011;5625;50.122;19.864;2022-12-07T06:22:09;15.40;;;12.57;;
11141;SDS011;5625;50.122;19.864;2022-12-07T06:24:38;14.43;;;11.60;;
11141;SDS011;5625;50.122;19.864;2022-12-07T06:27:07;16.43;;;13.30;;
11141;SDS011;5625;50.122;19.864;2022-12-07T06:29:35;15.80;;;12.83;;
11141;SDS011;5625;50.122;19.864;2022-12-07T06:32:04;16.03;;;12.27;;
11141;SDS011;5625;50.122;19.864;2022-12-07T06:34:34;17.00;;;13.40;;
11141;SDS011;5625;50.122;19.864;2022-12-07T06:37:02;16.60;;;13.50;;
11141;SDS011;5625;50.122;19.864;2022-12-07T06:39:30;17.80;;;13.77;;
11141;SDS011;5625;50.122;19.864;2022-12-07T06:41:58;16.77;;;13.90;;
11141;SDS011;5625;50.122;19.864;2022-12-07T06:44:29;18.30;;;13.57;;
11141;SDS011;5625;50.122;19.864;2022-12-07T06:46:57;17.63;;;14.13;;
11141;SDS011;5625;50.122;19.864;2022-12-07T06:49:46;16.07;;;13.33;;
11141;SDS011;5625;50.122;19.864;2022-12-07T06:52:15;16.83;;;13.17;;
11141;SDS011;5625;50.122;19.864;2022-12-07T06:54:43;18.57;;;14.03;;
11141;SDS011;5625;50.122;19.864;2022-12-07T06:57:11;18.17;;;14.50;;
11141;SDS011;5625;50.122;19.864;2022-12-07T06:59:39;19.83;;;15.27;;
11141;SDS011;5625;50.122;19.864;2022-12-07T07:02:07;18.43;;;13.97;;
11141;SDS011;5625;50.122;19.864;2022-12-07T07:04:36;19.50;;;14.00;;
11141;SDS011;5625;50.122;19.864;2022-12-07T07:07:05;16.60;;;13.13;;
11141;SDS011;5625;50.122;19.864;2022-12-07T07:09:33;19.90;;;14.20;;
11141;SDS011;5625;50.122;19.864;2022-12-07T07:12:02;19.37;;;13.87;;
11141;SDS011;5625;50.122;19.864;2022-12-07T07:14:30;18.60;;;13.70;;
11141;SDS011;5625;50.122;19.864;2022-12-07T07:16:58;20.57;;;15.27;;
11141;SDS011;5625;50.122;19.864;2022-12-07T07:19:27;20.60;;;15.00;;
11141;SDS011;5625;50.122;19.864;2022-12-07T07:21:55;20.80;;;15.03;;
11141;SDS011;5625;50.122;19.864;2022-12-07T07:24:24;21.40;;;14.73;;
11141;SDS011;5625;50.122;19.864;2022-12-07T07:26:52;20.90;;;14.60;;
11141;SDS011;5625;50.122;19.864;2022-12-07T07:29:21;22.37;;;15.13;;
11141;SDS011;5625;50.122;19.864;2022-12-07T07:31:49;18.50;;;14.50;;
11141;SDS011;5625;50.122;19.864;2022-12-07T07:34:17;20.47;;;14.20;;
11141;SDS011;5625;50.122;19.864;2022-12-07T07:36:47;22.20;;;15.47;;
11141;SDS011;5625;50.122;19.864;2022-12-07T07:39:15;20.37;;;15.13;;
11141;SDS011;5625;50.122;19.864;2022-12-07T07:41:45;21.63;;;15.40;;
11141;SDS011;5625;50.122;19.864;2022-12-07T07:44:13;22.17;;;15.87;;
11141;SDS011;5625;50.122;19.864;2022-12-07T07:46:42;20.80;;;15.93;;
11141;SDS011;5625;50.122;19.864;2022-12-07T07:49:10;21.90;;;16.43;;
11141;SDS011;5625;50.122;19.864;2022-12-07T07:51:38;22.53;;;16.03;;
11141;SDS011;5625;50.122;19.864;2022-12-07T07:54:06;22.73;;;16.37;;
11141;SDS011;5625;50.122;19.864;2022-12-07T07:56:34;24.00;;;16.33;;
11141;SDS011;5625;50.122;19.864;2022-12-07T07:59:04;22.20;;;16.50;;
11141;SDS011;5625;50.122;19.864;2022-12-07T08:01:32;22.30;;;16.90;;
11141;SDS011;5625;50.122;19.864;2022-12-07T08:04:00;22.57;;;16.97;;
11141;SDS011;5625;50.122;19.864;2022-12-07T08:06:28;24.17;;;16.70;;
11141;SDS011;5625;50.122;19.864;2022-12-07T08:08:57;21.80;;;15.97;;
11141;SDS011;5625;50.122;19.864;2022-12-07T08:11:26;24.03;;;17.37;;
11141;SDS011;5625;50.122;19.864;2022-12-07T08:13:54;24.17;;;15.80;;
11141;SDS011;5625;50.122;19.864;2022-12-07T08:16:25;20.03;;;14.47;;
11141;SDS011;5625;50.122;19.864;2022-12-07T08:18:53;21.97;;;16.10;;
11141;SDS011;5625;50.122;19.864;2022-12-07T08:21:22;18.80;;;13.70;;
11141;SDS011;5625;50.122;19.864;2022-12-07T08:23:50;17.27;;;13.67;;
11141;SDS011;5625;50.122;19.864;2022-12-07T08:26:18;16.70;;;13.00;;
11141;SDS011;5625;50.122;19.864;2022-12-07T08:28:47;17.80;;;12.93;;
11141;SDS011;5625;50.122;19.864;2022-12-07T08:31:16;16.60;;;12.70;;
11141;SDS011;5625;50.122;19.864;2022-12-07T08:33:48;16.33;;;12.43;;
11141;SDS011;5625;50.122;19.864;2022-12-07T08:36:17;15.87;;;12.30;;
11141;SDS011;5625;50.122;19.864;2022-12-07T08:38:45;16.30;;;12.70;;
11141;SDS011;5625;50.122;19.864;2022-12-07T08:41:33;14.73;;;11.50;;
11141;SDS011;5625;50.122;19.864;2022-12-07T08:44:01;14.23;;;11.60;;
11141;SDS011;5625;50.122;19.864;2022-12-07T08:46:30;15.47;;;11.73;;
11141;SDS011;5625;50.122;19.864;2022-12-07T08:49:06;14.53;;;11.00;;
11141;SDS011;5625;50.122;19.864;2022-12-07T08:51:38;12.50;;;10.50;;
11141;SDS011;5625;50.122;19.864;2022-12-07T08:54:09;14.83;;;10.93;;
11141;SDS011;5625;50.122;19.864;2022-12-07T08:56:41;14.23;;;11.10;;
11141;SDS011;5625;50.122;19.864;2022-12-07T08:59:10;14.40;;;11.60;;
11141;SDS011;5625;50.122;19.864;2022-12-07T09:01:39;12.70;;;11.17;;
11141;SDS011;5625;50.122;19.864;2022-12-07T09:04:09;14.57;;;12.00;;
11141;SDS011;5625;50.122;19.864;2022-12-07T09:06:37;13.57;;;11.43;;
11141;SDS011;5625;50.122;19.864;2022-12-07T09:09:05;14.57;;;11.23;;
11141;SDS011;5625;50.122;19.864;2022-12-07T09:11:35;15.43;;;11.43;;
11141;SDS011;5625;50.122;19.864;2022-12-07T09:14:03;14.57;;;11.20;;
11141;SDS011;5625;50.122;19.864;2022-12-07T09:16:31;13.83;;;11.57;;
11141;SDS011;5625;50.122;19.864;2022-12-07T09:18:59;11.80;;;10.50;;
11141;SDS011;5625;50.122;19.864;2022-12-07T09:21:29;14.20;;;11.70;;
11141;SDS011;5625;50.122;19.864;2022-12-07T09:23:57;14.53;;;11.10;;
11141;SDS011;5625;50.122;19.864;2022-12-07T09:26:27;13.97;;;11.10;;
11141;SDS011;5625;50.122;19.864;2022-12-07T09:28:55;13.53;;;10.97;;
11141;SDS011;5625;50.122;19.864;2022-12-07T09:31:23;13.87;;;12.37;;
11141;SDS011;5625;50.122;19.864;2022-12-07T09:33:53;15.20;;;12.67;;
11141;SDS011;5625;50.122;19.864;2022-12-07T09:36:23;14.77;;;11.20;;
11141;SDS011;5625;50.122;19.864;2022-12-07T09:38:53;13.83;;;11.53;;
11141;SDS011;5625;50.122;19.864;2022-12-07T09:41:25;15.10;;;11.33;;
11141;SDS011;5625;50.122;19.864;2022-12-07T09:43:57;15.00;;;11.83;;
11141;SDS011;5625;50.122;19.864;2022-12-07T09:46:32;13.37;;;11.33;;
11141;SDS011;5625;50.122;19.864;2022-12-07T09:49:04;12.23;;;10.93;;
11141;SDS011;5625;50.122;19.864;2022-12-07T09:51:32;13.73;;;11.63;;
11141;SDS011;5625;50.122;19.864;2022-12-07T09:54:01;12.93;;;11.30;;
11141;SDS011;5625;50.122;19.864;2022-12-07T09:56:29;13.53;;;11.87;;
11141;SDS011;5625;50.122;19.864;2022-12-07T09:59:00;14.30;;;11.53;;
11141;SDS011;5625;50.122;19.864;2022-12-07T10:01:30;13.87;;;12.00;;
11141;SDS011;5625;50.122;19.864;2022-12-07T10:04:00;14.80;;;12.77;;
11141;SDS011;5625;50.122;19.864;2022-12-07T10:06:36;14.07;;;11.60;;
11141;SDS011;5625;50.122;19.864;2022-12-07T10:09:10;14.70;;;11.07;;
11141;SDS011;5625;50.122;19.864;2022-12-07T10:14:33;14.37;;;11.83;;
11141;SDS011;5625;50.122;19.864;2022-12-07T10:17:30;13.93;;;12.37;;
11141;SDS011;5625;50.122;19.864;2022-12-07T10:20:20;15.80;;;11.97;;
11141;SDS011;5625;50.122;19.864;2022-12-07T10:22:59;14.37;;;12.00;;
11141;SDS011;5625;50.122;19.864;2022-12-07T10:25:31;13.70;;;12.13;;
11141;SDS011;5625;50.122;19.864;2022-12-07T10:28:01;13.73;;;11.67;;
11141;SDS011;5625;50.122;19.864;2022-12-07T10:30:46;12.87;;;11.33;;
11141;SDS011;5625;50.122;19.864;2022-12-07T10:33:29;13.60;;;11.30;;
11141;SDS011;5625;50.122;19.864;2022-12-07T10:36:00;14.83;;;11.27;;
11141;SDS011;5625;50.122;19.864;2022-12-07T10:38:44;14.73;;;11.67;;
11141;SDS011;5625;50.122;19.864;2022-12-07T10:41:15;14.03;;;12.07;;
11141;SDS011;5625;50.122;19.864;2022-12-07T10:43:48;15.33;;;11.70;;
11141;SDS011;5625;50.122;19.864;2022-12-07T10:49:23;15.03;;;11.60;;
11141;SDS011;5625;50.122;19.864;2022-12-07T10:52:11;13.43;;;11.73;;
11141;SDS011;5625;50.122;19.864;2022-12-07T10:54:48;15.50;;;11.73;;
11141;SDS011;5625;50.122;19.864;2022-12-07T10:57:29;14.97;;;12.13;;
11141;SDS011;5625;50.122;19.864;2022-12-07T11:00:18;17.60;;;12.00;;
11141;SDS011;5625;50.122;19.864;2022-12-07T11:02:55;12.97;;;11.57;;
11141;SDS011;5625;50.122;19.864;2022-12-07T11:05:38;14.30;;;12.00;;
11141;SDS011;5625;50.122;19.864;2022-12-07T11:08:13;14.60;;;12.63;;
11141;SDS011;5625;50.122;19.864;2022-12-07T11:10:50;15.03;;;12.50;;
11141;SDS011;5625;50.122;19.864;2022-12-07T11:13:26;14.57;;;11.37;;
11141;SDS011;5625;50.122;19.864;2022-12-07T11:16:07;14.00;;;10.60;;
11141;SDS011;5625;50.122;19.864;2022-12-07T11:18:50;11.53;;;10.33;;
11141;SDS011;5625;50.122;19.864;2022-12-07T11:21:26;11.13;;;10.00;;
11141;SDS011;5625;50.122;19.864;2022-12-07T11:24:03;11.87;;;9.37;;
11141;SDS011;5625;50.122;19.864;2022-12-07T11:26:41;10.27;;;8.93;;
11141;SDS011;5625;50.122;19.864;2022-12-07T11:29:32;12.17;;;9.43;;
11141;SDS011;5625;50.122;19.864;2022-12-07T11:32:16;10.63;;;9.17;;
11141;SDS011;5625;50.122;19.864;2022-12-07T11:34:56;10.43;;;8.90;;
11141;SDS011;5625;50.122;19.864;2022-12-07T11:37:31;12.83;;;9.93;;
11141;SDS011;5625;50.122;19.864;2022-12-07T11:40:08;11.07;;;9.23;;
11141;SDS011;5625;50.122;19.864;2022-12-07T11:42:44;12.23;;;9.13;;
11141;SDS011;5625;50.122;19.864;2022-12-07T11:45:23;11.43;;;9.40;;
11141;SDS011;5625;50.122;19.864;2022-12-07T11:47:57;11.20;;;9.00;;
11141;SDS011;5625;50.122;19.864;2022-12-07T11:50:33;11.33;;;9.60;;
11141;SDS011;5625;50.122;19.864;2022-12-07T11:53:03;10.07;;;8.97;;
11141;SDS011;5625;50.122;19.864;2022-12-07T11:55:40;10.73;;;9.27;;
11141;SDS011;5625;50.122;19.864;2022-12-07T11:58:29;13.27;;;9.13;;
11141;SDS011;5625;50.122;19.864;2022-12-07T12:01:13;11.10;;;9.13;;
11141;SDS011;5625;50.122;19.864;2022-12-07T12:03:52;11.57;;;9.47;;
11141;SDS011;5625;50.122;19.864;2022-12-07T12:06:24;10.33;;;9.10;;
11141;SDS011;5625;50.122;19.864;2022-12-07T12:08:53;14.23;;;9.63;;
11141;SDS011;5625;50.122;19.864;2022-12-07T12:11:51;12.70;;;9.60;;
11141;SDS011;5625;50.122;19.864;2022-12-07T12:15:04;12.33;;;9.77;;
11141;SDS011;5625;50.122;19.864;2022-12-07T12:17:52;11.43;;;9.40;;
11141;SDS011;5625;50.122;19.864;2022-12-07T12:20:29;10.60;;;9.47;;
11141;SDS011;5625;50.122;19.864;2022-12-07T12:23:01;10.07;;;8.83;;
11141;SDS011;5625;50.122;19.864;2022-12-07T12:25:39;10.33;;;8.87;;
11141;SDS011;5625;50.122;19.864;2022-12-07T12:28:18;10.47;;;8.77;;
11141;SDS011;5625;50.122;19.864;2022-12-07T12:31:04;10.70;;;8.80;;
11141;SDS011;5625;50.122;19.864;2022-12-07T12:33:35;10.40;;;9.30;;
11141;SDS011;5625;50.122;19.864;2022-12-07T12:36:18;10.23;;;8.93;;
11141;SDS011;5625;50.122;19.864;2022-12-07T12:38:49;11.13;;;9.50;;
11141;SDS011;5625;50.122;19.864;2022-12-07T12:44:39;8.73;;;7.93;;
11141;SDS011;5625;50.122;19.864;2022-12-07T12:50:27;9.37;;;8.37;;
11141;SDS011;5625;50.122;19.864;2022-12-07T12:52:58;9.37;;;8.17;;
11141;SDS011;5625;50.122;19.864;2022-12-07T12:55:49;9.90;;;8.20;;
11141;SDS011;5625;50.122;19.864;2022-12-07T12:58:43;9.23;;;8.33;;
11141;SDS011;5625;50.122;19.864;2022-12-07T13:04:21;8.73;;;7.73;;
11141;SDS011;5625;50.122;19.864;2022-12-07T13:07:13;15.00;;;10.70;;
11141;SDS011;5625;50.122;19.864;2022-12-07T13:10:36;9.67;;;8.50;;
11141;SDS011;5625;50.122;19.864;2022-12-07T13:25:22;7.57;;;6.73;;
11141;SDS011;5625;50.122;19.864;2022-12-07T13:27:58;6.93;;;6.23;;
11141;SDS011;5625;50.122;19.864;2022-12-07T13:30:34;10.47;;;7.93;;
11141;SDS011;5625;50.122;19.864;2022-12-07T13:33:16;7.37;;;6.57;;
11141;SDS011;5625;50.122;19.864;2022-12-07T13:35:45;6.53;;;5.50;;
11141;SDS011;5625;50.122;19.864;2022-12-07T13:38:18;6.57;;;5.90;;
11141;SDS011;5625;50.122;19.864;2022-12-07T13:40:59;6.13;;;5.53;;
11141;SDS011;5625;50.122;19.864;2022-12-07T13:43:28;7.00;;;6.30;;
11141;SDS011;5625;50.122;19.864;2022-12-07T13:45:56;6.33;;;5.73;;
11141;SDS011;5625;50.122;19.864;2022-12-07T13:48:28;8.50;;;6.47;;
11141;SDS011;5625;50.122;19.864;2022-12-07T13:51:00;8.47;;;6.63;;
11141;SDS011;5625;50.122;19.864;2022-12-07T13:53:30;11.30;;;8.33;;
11141;SDS011;5625;50.122;19.864;2022-12-07T13:55:59;10.03;;;8.13;;
11141;SDS011;5625;50.122;19.864;2022-12-07T13:58:30;11.17;;;8.17;;
11141;SDS011;5625;50.122;19.864;2022-12-07T14:01:00;9.93;;;7.57;;
11141;SDS011;5625;50.122;19.864;2022-12-07T14:03:30;9.10;;;7.13;;
11141;SDS011;5625;50.122;19.864;2022-12-07T14:06:03;7.83;;;7.03;;
11141;SDS011;5625;50.122;19.864;2022-12-07T14:08:45;8.40;;;7.50;;
11141;SDS011;5625;50.122;19.864;2022-12-07T14:11:17;8.27;;;7.43;;
11141;SDS011;5625;50.122;19.864;2022-12-07T14:13:52;7.80;;;7.00;;
11141;SDS011;5625;50.122;19.864;2022-12-07T14:16:26;7.83;;;7.07;;
11141;SDS011;5625;50.122;19.864;2022-12-07T14:18:58;7.67;;;6.93;;
11141;SDS011;5625;50.122;19.864;2022-12-07T14:21:28;8.17;;;7.20;;
11141;SDS011;5625;50.122;19.864;2022-12-07T14:24:10;10.83;;;8.13;;
11141;SDS011;5625;50.122;19.864;2022-12-07T14:26:42;11.50;;;9.23;;
11141;SDS011;5625;50.122;19.864;2022-12-07T14:32:14;12.70;;;9.20;;
11141;SDS011;5625;50.122;19.864;2022-12-07T14:34:54;11.37;;;8.13;;
11141;SDS011;5625;50.122;19.864;2022-12-07T14:37:23;11.27;;;8.60;;
11141;SDS011;5625;50.122;19.864;2022-12-07T14:39:53;14.40;;;10.67;;
11141;SDS011;5625;50.122;19.864;2022-12-07T14:42:22;16.33;;;12.87;;
11141;SDS011;5625;50.122;19.864;2022-12-07T14:44:53;16.23;;;13.27;;
11141;SDS011;5625;50.122;19.864;2022-12-07T14:47:21;13.20;;;11.33;;
11141;SDS011;5625;50.122;19.864;2022-12-07T14:50:11;13.23;;;10.27;;
11141;SDS011;5625;50.122;19.864;2022-12-07T14:52:40;12.20;;;10.37;;
11141;SDS011;5625;50.122;19.864;2022-12-07T14:55:32;13.93;;;9.70;;
11141;SDS011;5625;50.122;19.864;2022-12-07T14:57:59;10.97;;;8.87;;
11141;SDS011;5625;50.122;19.864;2022-12-07T15:00:31;10.23;;;8.90;;
11141;SDS011;5625;50.122;19.864;2022-12-07T15:03:02;11.07;;;8.60;;
11141;SDS011;5625;50.122;19.864;2022-12-07T15:05:30;10.03;;;8.77;;
11141;SDS011;5625;50.122;19.864;2022-12-07T15:07:59;10.50;;;8.93;;
11141;SDS011;5625;50.122;19.864;2022-12-07T15:10:30;12.73;;;10.77;;
11141;SDS011;5625;50.122;19.864;2022-12-07T15:13:04;11.20;;;10.10;;
11141;SDS011;5625;50.122;19.864;2022-12-07T15:15:51;11.03;;;9.60;;
11141;SDS011;5625;50.122;19.864;2022-12-07T15:18:21;9.93;;;8.93;;
11141;SDS011;5625;50.122;19.864;2022-12-07T15:20:50;9.90;;;8.90;;
11141;SDS011;5625;50.122;19.864;2022-12-07T15:23:18;9.97;;;8.93;;
11141;SDS011;5625;50.122;19.864;2022-12-07T15:25:48;10.37;;;9.20;;
11141;SDS011;5625;50.122;19.864;2022-12-07T15:28:16;10.53;;;9.07;;
11141;SDS011;5625;50.122;19.864;2022-12-07T15:30:44;9.73;;;8.70;;
11141;SDS011;5625;50.122;19.864;2022-12-07T15:33:12;11.87;;;9.67;;